createdAt,value
2019-05-13T00:00:44.755Z,103284.88
2019-05-13T00:03:14.316Z,103284.98
2019-05-13T00:05:44.500Z,103284.66
2019-05-13T00:08:14.224Z,103286.00
2019-05-13T00:10:44.286Z,103288.30
2019-05-13T00:13:14.819Z,103283.47
2019-05-13T00:15:44.583Z,103280.59
2019-05-13T00:18:14.597Z,103281.52
2019-05-13T00:20:44.586Z,103288.01
2019-05-13T00:23:14.489Z,103292.70
2019-05-13T00:25:44.653Z,103288.73
2019-05-13T00:28:14.751Z,103282.59
2019-05-13T00:30:44.711Z,103283.07
2019-05-13T00:33:14.401Z,103288.70
2019-05-13T00:35:44.429Z,103293.98
2019-05-13T00:38:14.321Z,103287.92
2019-05-13T00:40:44.461Z,103287.92
2019-05-13T00:43:14.560Z,103286.16
2019-05-13T00:45:44.548Z,103282.86
2019-05-13T00:48:14.484Z,103282.95
2019-05-13T00:50:44.537Z,103281.19
2019-05-13T00:53:14.127Z,103282.14
2019-05-13T00:55:44.577Z,103276.83
2019-05-13T00:58:14.333Z,103286.81
2019-05-13T01:00:44.709Z,103282.78
2019-05-13T01:03:14.481Z,103280.23
2019-05-13T01:05:44.533Z,103283.50
2019-05-13T01:08:14.670Z,103286.72
2019-05-13T01:10:45.186Z,103284.13
2019-05-13T01:13:15.156Z,103284.76
2019-05-13T01:15:44.617Z,103284.14
2019-05-13T01:18:14.438Z,103280.49
2019-05-13T01:20:44.287Z,103278.53
2019-05-13T01:23:14.268Z,103276.73
2019-05-13T01:25:44.592Z,103276.27
2019-05-13T01:28:14.285Z,103275.16
2019-05-13T01:30:44.123Z,103276.56
2019-05-13T01:33:14.435Z,103283.27
2019-05-13T01:35:46.711Z,103283.94
2019-05-13T01:38:16.049Z,103275.07
2019-05-13T01:40:45.461Z,103275.25
2019-05-13T01:43:14.924Z,103278.00
2019-05-13T01:45:44.422Z,103273.58
2019-05-13T01:48:14.271Z,103280.44
2019-05-13T01:50:44.655Z,103282.92
2019-05-13T01:53:14.634Z,103278.56
2019-05-13T01:55:44.537Z,103282.83
2019-05-13T01:58:14.580Z,103283.39
2019-05-13T02:00:44.665Z,103281.23
2019-05-13T02:03:14.716Z,103286.22
2019-05-13T02:05:44.622Z,103286.22
2019-05-13T02:08:14.531Z,103291.35
2019-05-13T02:10:54.998Z,103285.92
2019-05-13T02:13:25.233Z,103277.53
2019-05-13T02:15:55.938Z,103279.50
2019-05-13T02:18:25.283Z,103280.55
2019-05-13T02:20:55.770Z,103278.86
2019-05-13T02:23:25.539Z,103281.16
2019-05-13T02:25:55.108Z,103285.75
2019-05-13T02:28:25.278Z,103286.67
2019-05-13T02:30:56.750Z,103282.34
2019-05-13T02:33:28.609Z,103285.98
2019-05-13T02:35:58.035Z,103287.47
2019-05-13T02:38:30.741Z,103288.90
2019-05-13T02:40:58.590Z,103290.47
2019-05-13T02:43:28.067Z,103289.22
2019-05-13T02:45:57.738Z,103291.00
2019-05-13T02:48:27.150Z,103287.14
2019-05-13T02:50:56.559Z,103286.34
2019-05-13T02:53:25.937Z,103290.05
2019-05-13T02:55:55.514Z,103289.72
2019-05-13T02:58:25.557Z,103291.15
2019-05-13T03:00:55.241Z,103293.44
2019-05-13T03:03:24.630Z,103295.01
2019-05-13T03:05:54.191Z,103292.46
2019-05-13T03:08:39.259Z,103299.22
2019-05-13T03:10:54.833Z,103297.02
2019-05-13T03:13:24.430Z,103290.92
2019-05-13T03:16:13.187Z,103292.13
2019-05-13T03:18:43.621Z,103294.47
2019-05-13T03:21:13.126Z,103306.54
2019-05-13T03:23:44.069Z,103306.71
2019-05-13T03:26:13.917Z,103302.44
2019-05-13T03:28:43.966Z,103308.27
2019-05-13T03:31:17.022Z,103314.50
2019-05-13T03:33:46.991Z,103319.48
2019-05-13T03:36:17.689Z,103322.60
2019-05-13T03:39:01.711Z,103317.32
2019-05-13T03:41:22.431Z,103318.13
2019-05-13T03:43:53.555Z,103310.53
2019-05-13T03:46:24.754Z,103312.43
2019-05-13T03:48:55.266Z,103310.30
2019-05-13T03:51:24.748Z,103312.65
2019-05-13T03:53:54.249Z,103318.48
2019-05-13T03:56:24.262Z,103315.02
2019-05-13T03:58:54.136Z,103317.70
2019-05-13T04:01:23.867Z,103314.13
2019-05-13T04:03:53.243Z,103313.81
2019-05-13T04:06:23.683Z,103310.74
2019-05-13T04:08:54.911Z,103316.97
2019-05-13T04:11:24.854Z,103311.69
2019-05-13T04:13:54.350Z,103314.42
2019-05-13T04:16:24.090Z,103312.69
2019-05-13T04:18:53.929Z,103315.38
2019-05-13T04:21:23.887Z,103314.11
2019-05-13T04:23:53.665Z,103314.98
2019-05-13T04:26:23.889Z,103322.16
2019-05-13T04:28:53.588Z,103316.93
2019-05-13T04:31:23.208Z,103317.41
2019-05-13T04:33:53.494Z,103322.29
2019-05-13T04:36:23.885Z,103327.57
2019-05-13T04:38:53.600Z,103320.48
2019-05-13T04:41:23.446Z,103326.66
2019-05-13T04:43:53.932Z,103327.30
2019-05-13T04:46:23.852Z,103331.33
2019-05-13T04:48:53.502Z,103334.87
2019-05-13T04:51:23.179Z,103332.67
2019-05-13T04:53:56.899Z,103329.91
2019-05-13T04:56:23.986Z,103329.34
2019-05-13T04:58:53.424Z,103332.11
2019-05-13T05:02:13.447Z,103329.77
2019-05-13T05:04:59.075Z,103333.16
2019-05-13T05:07:58.870Z,103327.95
2019-05-13T05:11:02.412Z,103324.33
2019-05-13T05:14:17.392Z,103324.28
2019-05-13T05:17:22.543Z,103323.55
2019-05-13T05:20:03.576Z,103322.63
2019-05-13T05:23:14.156Z,103316.71
2019-05-13T05:26:18.692Z,103324.33
2019-05-13T05:29:04.794Z,103322.33
2019-05-13T05:32:04.208Z,103327.70
2019-05-13T05:35:11.783Z,103329.55
2019-05-13T05:38:26.127Z,103318.59
2019-05-13T05:40:59.066Z,103331.31
2019-05-13T05:43:31.594Z,103331.04
2019-05-13T05:46:03.577Z,103331.59
2019-05-13T05:48:35.669Z,103330.75
2019-05-13T05:51:06.004Z,103322.47
2019-05-13T05:53:37.852Z,103332.89
2019-05-13T05:56:08.087Z,103334.25
2019-05-13T05:58:37.889Z,103328.23
2019-05-13T06:01:08.544Z,103337.01
2019-05-13T06:03:39.021Z,103329.67
2019-05-13T06:06:08.582Z,103333.61
2019-05-13T06:08:37.937Z,103337.64
2019-05-13T06:11:07.443Z,103339.71
2019-05-13T06:13:39.054Z,103332.67
2019-05-13T06:16:08.532Z,103332.34
2019-05-13T06:18:37.907Z,103331.81
2019-05-13T06:21:07.462Z,103334.56
2019-05-13T06:23:37.107Z,103334.23
2019-05-13T06:26:06.508Z,103337.01
2019-05-13T06:28:35.900Z,103342.86
2019-05-13T06:31:05.454Z,103339.30
2019-05-13T06:33:34.830Z,103344.82
2019-05-13T06:36:04.507Z,103349.03
2019-05-13T06:38:33.936Z,103342.92
2019-05-13T06:41:07.952Z,103342.02
2019-05-13T06:43:34.419Z,103347.63
2019-05-13T06:46:03.771Z,103347.95
2019-05-13T06:48:33.145Z,103352.28
2019-05-13T06:51:02.765Z,103349.81
2019-05-13T06:53:32.333Z,103347.03
2019-05-13T06:56:01.745Z,103356.58
2019-05-13T06:58:32.537Z,103347.88
2019-05-13T07:01:03.626Z,103351.84
2019-05-13T07:03:33.266Z,103347.08
2019-05-13T07:06:03.289Z,103350.77
2019-05-13T07:08:32.717Z,103348.36
2019-05-13T07:11:17.194Z,103345.42
2019-05-13T07:13:33.222Z,103349.14
2019-05-13T07:16:02.606Z,103350.61
2019-05-13T07:18:32.457Z,103347.66
2019-05-13T07:21:02.346Z,103357.27
2019-05-13T07:23:32.079Z,103350.86
2019-05-13T07:26:01.908Z,103356.20
2019-05-13T07:28:32.257Z,103344.69
2019-05-13T07:31:02.218Z,103345.32
2019-05-13T07:33:32.124Z,103350.12
2019-05-13T07:36:04.004Z,103347.55
2019-05-13T07:38:33.561Z,103345.01
2019-05-13T07:41:04.235Z,103336.17
2019-05-13T07:43:33.806Z,103341.75
2019-05-13T07:46:03.244Z,103342.38
2019-05-13T07:48:32.693Z,103347.19
2019-05-13T07:51:04.426Z,103349.13
2019-05-13T07:53:33.103Z,103350.41
2019-05-13T07:56:02.649Z,103348.52
2019-05-13T07:58:37.053Z,103347.82
2019-05-13T08:01:03.194Z,103345.27
2019-05-13T08:03:32.586Z,103350.06
2019-05-13T08:06:02.284Z,103360.78
2019-05-13T08:08:32.491Z,103351.13
2019-05-13T08:11:01.995Z,103359.25
2019-05-13T08:13:31.606Z,103355.41
2019-05-13T08:16:01.931Z,103356.48
2019-05-13T08:18:32.057Z,103355.72
2019-05-13T08:21:02.244Z,103359.58
2019-05-13T08:23:32.511Z,103363.72
2019-05-13T08:26:02.447Z,103368.83
2019-05-13T08:28:32.507Z,103363.27
2019-05-13T08:31:02.328Z,103365.49
2019-05-13T08:33:32.318Z,103367.01
2019-05-13T08:36:02.054Z,103365.56
2019-05-13T08:38:32.078Z,103375.41
2019-05-13T08:41:02.200Z,103371.06
2019-05-13T08:43:32.013Z,103357.73
2019-05-13T08:46:02.189Z,103361.57
2019-05-13T08:48:32.351Z,103369.67
2019-05-13T08:51:03.321Z,103370.39
2019-05-13T08:53:32.947Z,103379.55
2019-05-13T08:56:02.319Z,103369.75
2019-05-13T08:58:33.374Z,103373.27
2019-05-13T09:01:02.761Z,103374.21
2019-05-13T09:03:32.726Z,103369.55
2019-05-13T09:06:03.218Z,103376.30
2019-05-13T09:08:32.783Z,103370.35
2019-05-13T09:11:02.557Z,103376.49
2019-05-13T09:13:33.158Z,103373.39
2019-05-13T09:16:02.881Z,103370.27
2019-05-13T09:18:32.523Z,103370.44
2019-05-13T09:21:02.787Z,103376.28
2019-05-13T09:23:32.331Z,103360.23
2019-05-13T09:26:02.613Z,103366.56
2019-05-13T09:28:32.638Z,103363.05
2019-05-13T09:31:02.425Z,103357.80
2019-05-13T09:33:32.717Z,103358.17
2019-05-13T09:36:02.675Z,103359.34
2019-05-13T09:38:32.730Z,103356.31
2019-05-13T09:41:02.436Z,103356.77
2019-05-13T09:43:31.779Z,103357.55
2019-05-13T09:46:01.863Z,103354.19
2019-05-13T09:48:32.101Z,103355.70
2019-05-13T09:51:02.501Z,103357.96
2019-05-13T09:53:32.696Z,103352.98
2019-05-13T09:56:02.778Z,103352.78
2019-05-13T09:58:33.002Z,103343.09
2019-05-13T10:01:02.768Z,103344.27
2019-05-13T10:03:33.075Z,103342.36
2019-05-13T10:06:03.094Z,103345.37
2019-05-13T10:08:32.987Z,103346.04
2019-05-13T10:11:02.564Z,103346.44
2019-05-13T10:13:34.200Z,103342.00
2019-05-13T10:16:03.613Z,103339.81
2019-05-13T10:18:32.959Z,103345.25
2019-05-13T10:21:03.457Z,103337.63
2019-05-13T10:23:33.512Z,103343.22
2019-05-13T10:26:05.496Z,103336.09
2019-05-13T10:28:35.850Z,103336.38
2019-05-13T10:31:06.689Z,103327.26
2019-05-13T10:33:36.068Z,103331.75
2019-05-13T10:36:05.695Z,103330.03
2019-05-13T10:38:35.159Z,103333.16
2019-05-13T10:41:04.743Z,103326.16
2019-05-13T10:43:40.257Z,103327.38
2019-05-13T10:46:05.549Z,103334.30
2019-05-13T10:48:34.936Z,103324.08
2019-05-13T10:51:04.661Z,103320.64
2019-05-13T10:53:34.007Z,103337.65
2019-05-13T10:56:03.649Z,103330.37
2019-05-13T10:58:33.115Z,103332.22
2019-05-13T11:01:03.324Z,103329.53
2019-05-13T11:03:33.302Z,103338.53
2019-05-13T11:06:03.203Z,103331.73
2019-05-13T11:08:33.378Z,103335.80
2019-05-13T11:11:03.495Z,103331.89
2019-05-13T11:13:50.570Z,103330.29
2019-05-13T11:16:04.117Z,103329.66
2019-05-13T11:18:33.489Z,103339.88
2019-05-13T11:21:03.247Z,103332.48
2019-05-13T11:23:32.689Z,103324.94
2019-05-13T11:26:03.094Z,103323.04
2019-05-13T11:28:33.222Z,103316.48
2019-05-13T11:31:03.536Z,103319.80
2019-05-13T11:33:33.110Z,103310.00
2019-05-13T11:36:03.541Z,103305.62
2019-05-13T11:38:33.641Z,103298.58
2019-05-13T11:41:03.462Z,103299.55
2019-05-13T11:43:33.771Z,103299.86
2019-05-13T11:46:03.965Z,103300.47
2019-05-13T11:48:33.360Z,103297.50
2019-05-13T11:51:04.409Z,103296.96
2019-05-13T11:53:37.329Z,103295.45
2019-05-13T11:56:05.166Z,103292.33
2019-05-13T11:58:34.514Z,103282.77
2019-05-13T12:01:07.951Z,103289.23
2019-05-13T12:03:37.492Z,103286.56
2019-05-13T12:06:06.914Z,103282.68
2019-05-13T12:08:36.296Z,103300.30
2019-05-13T12:11:06.511Z,103291.67
2019-05-13T12:13:36.217Z,103294.32
2019-05-13T12:16:05.542Z,103283.07
2019-05-13T12:18:41.420Z,103275.96
2019-05-13T12:21:06.152Z,103283.63
2019-05-13T12:23:35.685Z,103284.28
2019-05-13T12:26:05.180Z,103281.97
2019-05-13T12:28:34.886Z,103278.59
2019-05-13T12:31:04.337Z,103279.43
2019-05-13T12:33:33.797Z,103267.67
2019-05-13T12:36:03.185Z,103276.76
2019-05-13T12:38:33.407Z,103276.04
2019-05-13T12:41:05.320Z,103272.62
2019-05-13T12:43:34.203Z,103267.57
2019-05-13T12:46:03.762Z,103247.33
2019-05-13T12:48:33.190Z,103256.17
2019-05-13T12:51:03.293Z,103259.83
2019-05-13T12:53:32.811Z,103260.34
2019-05-13T12:56:03.570Z,103250.05
2019-05-13T12:58:34.250Z,103248.34
2019-05-13T13:01:03.935Z,103249.86
2019-05-13T13:03:33.303Z,103243.31
2019-05-13T13:06:25.916Z,103242.53
2019-05-13T13:08:43.768Z,103252.59
2019-05-13T13:11:05.411Z,103246.16
2019-05-13T13:13:56.600Z,103242.92
2019-05-13T13:16:05.978Z,103247.50
2019-05-13T13:18:35.368Z,103241.27
2019-05-13T13:21:07.202Z,103249.20
2019-05-13T13:23:35.931Z,103243.98
2019-05-13T13:26:13.853Z,103242.55
2019-05-13T13:28:36.451Z,103236.45
2019-05-13T13:31:05.775Z,103231.16
2019-05-13T13:33:35.064Z,103243.84
2019-05-13T13:36:06.301Z,103243.94
2019-05-13T13:38:35.650Z,103234.39
2019-05-13T13:41:04.967Z,103244.61
2019-05-13T13:43:37.055Z,103232.33
2019-05-13T13:46:16.382Z,103232.80
2019-05-13T13:48:36.707Z,103236.58
2019-05-13T13:51:06.167Z,103233.64
2019-05-13T13:53:35.581Z,103231.08
2019-05-13T13:56:04.985Z,103229.69
2019-05-13T13:58:34.334Z,103228.77
2019-05-13T14:01:11.890Z,103228.75
2019-05-13T14:03:34.815Z,103231.14
2019-05-13T14:06:06.511Z,103217.80
2019-05-13T14:08:35.465Z,103210.61
2019-05-13T14:11:04.853Z,103207.30
2019-05-13T14:13:34.233Z,103208.48
2019-05-13T14:16:03.657Z,103205.78
2019-05-13T14:18:33.043Z,103194.27
2019-05-13T14:21:03.356Z,103196.73
2019-05-13T14:23:32.929Z,103200.66
2019-05-13T14:26:02.392Z,103193.91
2019-05-13T14:28:32.718Z,103192.33
2019-05-13T14:31:02.268Z,103202.11
2019-05-13T14:33:35.158Z,103192.09
2019-05-13T14:36:02.713Z,103190.19
2019-05-13T14:38:32.772Z,103187.83
2019-05-13T14:41:03.490Z,103191.59
2019-05-13T14:43:33.047Z,103181.41
2019-05-13T14:46:02.725Z,103187.89
2019-05-13T14:48:33.065Z,103176.78
2019-05-13T14:51:02.854Z,103172.17
2019-05-13T14:53:32.566Z,103166.05
2019-05-13T14:56:03.171Z,103168.67
2019-05-13T14:58:33.021Z,103166.31
2019-05-13T15:01:17.822Z,103170.38
2019-05-13T15:03:33.603Z,103178.00
2019-05-13T15:06:03.210Z,103172.88
2019-05-13T15:08:33.155Z,103169.55
2019-05-13T15:11:02.622Z,103172.32
2019-05-13T15:13:32.339Z,103167.77
2019-05-13T15:16:01.786Z,103164.22
2019-05-13T15:18:32.706Z,103160.88
2019-05-13T15:21:02.372Z,103153.99
2019-05-13T15:23:31.956Z,103148.21
2019-05-13T15:26:02.408Z,103145.09
2019-05-13T15:28:32.069Z,103148.48
2019-05-13T15:31:01.550Z,103146.13
2019-05-13T15:33:32.692Z,103153.18
2019-05-13T15:36:02.404Z,103150.60
2019-05-13T15:38:34.164Z,103146.28
2019-05-13T15:41:03.498Z,103144.83
2019-05-13T15:43:32.890Z,103147.41
2019-05-13T15:46:02.285Z,103141.63
2019-05-13T15:48:31.913Z,103143.54
2019-05-13T15:51:02.107Z,103143.47
2019-05-13T15:53:32.270Z,103141.03
2019-05-13T15:56:02.647Z,103138.28
2019-05-13T15:58:39.439Z,103139.56
2019-05-13T16:01:03.638Z,103143.73
2019-05-13T16:03:33.001Z,103134.74
2019-05-13T16:06:02.411Z,103136.91
2019-05-13T16:08:32.132Z,103141.16
2019-05-13T16:11:02.391Z,103130.77
2019-05-13T16:13:32.267Z,103133.94
2019-05-13T16:16:01.950Z,103131.61
2019-05-13T16:18:31.908Z,103137.95
2019-05-13T16:21:01.926Z,103147.81
2019-05-13T16:23:32.596Z,103145.76
2019-05-13T16:26:02.097Z,103124.78
2019-05-13T16:28:32.558Z,103126.73
2019-05-13T16:31:02.728Z,103134.56
2019-05-13T16:33:32.449Z,103125.62
2019-05-13T16:36:02.823Z,103135.41
2019-05-13T16:38:33.038Z,103131.06
2019-05-13T16:41:02.925Z,103117.54
2019-05-13T16:43:32.872Z,103114.87
2019-05-13T16:46:02.331Z,103122.55
2019-05-13T16:48:32.442Z,103120.44
2019-05-13T16:51:02.129Z,103122.02
2019-05-13T16:53:31.787Z,103127.89
2019-05-13T16:56:02.068Z,103121.95
2019-05-13T16:58:32.390Z,103116.56
2019-05-13T17:01:02.759Z,103114.61
2019-05-13T17:03:32.304Z,103116.59
2019-05-13T17:06:02.255Z,103124.36
2019-05-13T17:08:32.192Z,103124.98
2019-05-13T17:11:02.299Z,103122.04
2019-05-13T17:13:32.138Z,103115.45
2019-05-13T17:16:01.797Z,103115.13
2019-05-13T17:18:32.481Z,103114.22
2019-05-13T17:21:02.052Z,103120.28
2019-05-13T17:23:31.416Z,103117.97
2019-05-13T17:26:02.605Z,103107.41
2019-05-13T17:28:34.488Z,103107.41
2019-05-13T17:31:04.259Z,103100.30
2019-05-13T17:33:33.600Z,103106.44
2019-05-13T17:36:02.979Z,103107.23
2019-05-13T17:38:32.634Z,103102.41
2019-05-13T17:41:02.630Z,103108.85
2019-05-13T17:43:32.363Z,103107.75
2019-05-13T17:46:01.702Z,103099.81
2019-05-13T17:48:33.039Z,103094.76
2019-05-13T17:51:02.134Z,103099.55
2019-05-13T17:53:32.597Z,103101.65
2019-05-13T17:56:02.642Z,103095.59
2019-05-13T17:58:32.239Z,103096.34
2019-05-13T18:01:02.043Z,103092.19
2019-05-13T18:03:31.961Z,103092.52
2019-05-13T18:06:02.448Z,103092.62
2019-05-13T18:08:32.365Z,103093.91
2019-05-13T18:11:02.418Z,103094.48
2019-05-13T18:13:32.154Z,103090.28
2019-05-13T18:16:02.580Z,103092.60
2019-05-13T18:18:43.229Z,103095.23
2019-05-13T18:21:03.187Z,103092.77
2019-05-13T18:23:32.471Z,103089.28
2019-05-13T18:26:02.096Z,103081.28
2019-05-13T18:28:31.753Z,103082.33
2019-05-13T18:31:01.810Z,103083.03
2019-05-13T18:33:31.881Z,103077.25
2019-05-13T18:36:01.992Z,103071.78
2019-05-13T18:38:31.535Z,103075.77
2019-05-13T18:41:01.734Z,103075.75
2019-05-13T18:43:32.019Z,103071.59
2019-05-13T18:46:02.261Z,103068.33
2019-05-13T18:48:32.411Z,103068.78
2019-05-13T18:51:01.890Z,103068.94
2019-05-13T18:53:32.065Z,103072.09
2019-05-13T18:56:02.253Z,103063.28
2019-05-13T18:58:31.886Z,103065.99
2019-05-13T19:01:01.517Z,103066.94
2019-05-13T19:03:32.378Z,103067.94
2019-05-13T19:06:02.064Z,103062.75
2019-05-13T19:08:32.114Z,103068.82
2019-05-13T19:11:01.600Z,103066.92
2019-05-13T19:13:32.410Z,103066.06
2019-05-13T19:16:02.508Z,103062.98
2019-05-13T19:18:32.213Z,103066.16
2019-05-13T19:21:02.030Z,103068.28
2019-05-13T19:23:31.736Z,103067.44
2019-05-13T19:26:01.908Z,103067.36
2019-05-13T19:28:31.957Z,103064.42
2019-05-13T19:31:02.307Z,103063.21
2019-05-13T19:33:31.661Z,103065.38
2019-05-13T19:36:01.559Z,103065.98
2019-05-13T19:38:31.863Z,103066.80
2019-05-13T19:41:01.931Z,103068.78
2019-05-13T19:43:31.713Z,103066.80
2019-05-13T19:46:01.714Z,103068.29
2019-05-13T19:48:32.603Z,103071.78
2019-05-13T19:51:02.319Z,103073.77
2019-05-13T19:53:32.077Z,103068.47
2019-05-13T19:56:01.789Z,103067.48
2019-05-13T19:58:32.346Z,103069.23
2019-05-13T20:01:01.976Z,103074.02
2019-05-13T20:03:31.897Z,103073.52
2019-05-13T20:06:02.175Z,103075.99
2019-05-13T20:08:32.230Z,103074.64
2019-05-13T20:11:02.182Z,103076.73
2019-05-13T20:13:31.603Z,103079.66
2019-05-13T20:16:01.574Z,103086.42
2019-05-13T20:18:32.016Z,103084.60
2019-05-13T20:21:01.631Z,103082.50
2019-05-13T20:23:32.030Z,103084.07
2019-05-13T20:26:01.480Z,103087.54
2019-05-13T20:28:31.715Z,103082.80
2019-05-13T20:31:01.829Z,103086.03
2019-05-13T20:33:32.216Z,103088.91
2019-05-13T20:36:02.052Z,103089.97
2019-05-13T20:38:31.788Z,103086.73
2019-05-13T20:41:01.422Z,103086.80
2019-05-13T20:43:32.836Z,103087.08
2019-05-13T20:46:02.219Z,103086.61
2019-05-13T20:48:32.126Z,103083.45
2019-05-13T20:51:02.606Z,103085.72
2019-05-13T20:53:32.137Z,103087.40
2019-05-13T20:56:01.919Z,103088.70
2019-05-13T20:58:32.046Z,103086.82
2019-05-13T21:01:02.326Z,103074.73
2019-05-13T21:03:32.107Z,103080.42
2019-05-13T21:06:01.466Z,103081.44
2019-05-13T21:08:32.188Z,103080.47
2019-05-13T21:11:02.393Z,103076.52
2019-05-13T21:13:32.077Z,103081.19
2019-05-13T21:16:02.285Z,103076.70
2019-05-13T21:18:31.913Z,103079.60
2019-05-13T21:21:01.291Z,103073.28
2019-05-13T21:23:31.313Z,103077.15
2019-05-13T21:26:01.647Z,103072.67
2019-05-13T21:28:31.098Z,103073.95
2019-05-13T21:31:02.145Z,103077.44
2019-05-13T21:33:31.755Z,103080.52
2019-05-13T21:36:01.824Z,103080.75
2019-05-13T21:38:32.396Z,103079.11
2019-05-13T21:41:01.996Z,103079.30
2019-05-13T21:43:32.392Z,103079.19
2019-05-13T21:46:02.313Z,103083.94
2019-05-13T21:48:32.557Z,103078.63
2019-05-13T21:51:02.309Z,103077.50
2019-05-13T21:53:32.632Z,103077.98
2019-05-13T21:56:02.585Z,103075.48
2019-05-13T21:58:32.522Z,103074.81
2019-05-13T22:01:02.876Z,103071.63
2019-05-13T22:03:33.565Z,103070.69
2019-05-13T22:06:03.113Z,103066.94
2019-05-13T22:08:32.528Z,103074.47
2019-05-13T22:11:02.222Z,103064.36
2019-05-13T22:13:31.806Z,103066.78
2019-05-13T22:16:01.800Z,103066.11
2019-05-13T22:18:31.705Z,103059.77
2019-05-13T22:21:01.654Z,103064.48
2019-05-13T22:23:32.123Z,103067.20
2019-05-13T22:26:02.046Z,103059.11
2019-05-13T22:28:31.585Z,103051.43
2019-05-13T22:31:01.559Z,103059.42
2019-05-13T22:33:32.360Z,103058.06
2019-05-13T22:36:02.146Z,103055.66
2019-05-13T22:38:32.372Z,103050.97
2019-05-13T22:41:03.221Z,103052.97
2019-05-13T22:43:32.630Z,103048.81
2019-05-13T22:46:02.020Z,103043.33
2019-05-13T22:48:31.881Z,103041.58
2019-05-13T22:51:01.589Z,103038.31
2019-05-13T22:53:31.863Z,103032.83
2019-05-13T22:56:01.672Z,103039.84
2019-05-13T22:58:32.167Z,103032.15
2019-05-13T23:01:02.535Z,103035.02
2019-05-13T23:03:32.528Z,103032.98
2019-05-13T23:06:02.286Z,103030.88
2019-05-13T23:08:32.408Z,103024.70
2019-05-13T23:11:02.447Z,103029.70
2019-05-13T23:13:31.897Z,103027.12
2019-05-13T23:16:02.438Z,103027.50
2019-05-13T23:18:32.003Z,103027.80
2019-05-13T23:21:02.279Z,103027.32
2019-05-13T23:23:31.916Z,103027.22
2019-05-13T23:26:01.274Z,103021.36
2019-05-13T23:28:32.319Z,103021.73
2019-05-13T23:31:02.032Z,103018.48
2019-05-13T23:33:31.575Z,103015.42
2019-05-13T23:36:01.587Z,103013.28
2019-05-13T23:38:31.881Z,103010.22
2019-05-13T23:41:02.166Z,103007.14
2019-05-13T23:43:31.888Z,103007.32
2019-05-13T23:46:01.450Z,103008.39
2019-05-13T23:48:32.139Z,103013.84
2019-05-13T23:51:01.705Z,103012.22
2019-05-13T23:53:31.646Z,103007.33
2019-05-13T23:56:02.154Z,103010.02
2019-05-13T23:58:32.257Z,103007.80
